sensor_id;sensor_type;location;lat;lon;timestamp;P1;durP1;ratioP1;P2;durP2;ratioP2
19848;SDS011;10085;51.120;6.956;2023-11-21T11:19:04;149.52;;;24.20;;
19848;SDS011;10085;51.120;6.956;2023-11-21T11:29:08;107.30;;;20.15;;
19848;SDS011;10085;51.120;6.956;2023-11-21T11:39:29;114.15;;;19.75;;
19848;SDS011;10085;51.120;6.956;2023-11-21T11:49:32;120.55;;;21.20;;
19848;SDS011;10085;51.120;6.956;2023-11-21T12:10:04;87.88;;;17.50;;
19848;SDS011;10085;51.120;6.956;2023-11-21T12:20:08;59.60;;;15.63;;
19848;SDS011;10085;51.120;6.956;2023-11-21T12:30:17;50.00;;;13.32;;
19848;SDS011;10085;51.120;6.956;2023-11-21T12:40:23;54.50;;;14.00;;
19848;SDS011;10085;51.120;6.956;2023-11-21T12:50:29;44.00;;;12.02;;
19848;SDS011;10085;51.120;6.956;2023-11-21T13:00:35;51.58;;;12.57;;
19848;SDS011;10085;51.120;6.956;2023-11-21T13:10:41;27.80;;;8.80;;
19848;SDS011;10085;51.120;6.956;2023-11-21T13:20:47;41.15;;;12.57;;
19848;SDS011;10085;51.120;6.956;2023-11-21T13:30:52;36.78;;;10.75;;
19848;SDS011;10085;51.120;6.956;2023-11-21T13:40:55;48.00;;;14.30;;
19848;SDS011;10085;51.120;6.956;2023-11-21T13:51:01;42.42;;;12.48;;
19848;SDS011;10085;51.120;6.956;2023-11-21T14:01:12;45.35;;;12.13;;
19848;SDS011;10085;51.120;6.956;2023-11-21T14:11:35;52.70;;;14.23;;
19848;SDS011;10085;51.120;6.956;2023-11-21T14:21:48;41.70;;;13.38;;
19848;SDS011;10085;51.120;6.956;2023-11-21T14:31:52;35.65;;;11.70;;
19848;SDS011;10085;51.120;6.956;2023-11-21T14:41:58;40.35;;;13.05;;
19848;SDS011;10085;51.120;6.956;2023-11-21T14:52:05;26.40;;;10.18;;
19848;SDS011;10085;51.120;6.956;2023-11-21T15:02:21;30.08;;;10.63;;
19848;SDS011;10085;51.120;6.956;2023-11-21T15:12:46;26.77;;;10.20;;
19848;SDS011;10085;51.120;6.956;2023-11-21T15:22:49;30.83;;;10.70;;
19848;SDS011;10085;51.120;6.956;2023-11-21T15:32:53;31.40;;;10.90;;
19848;SDS011;10085;51.120;6.956;2023-11-21T15:42:56;30.77;;;9.18;;
19848;SDS011;10085;51.120;6.956;2023-11-21T15:53:00;31.00;;;10.60;;
19848;SDS011;10085;51.120;6.956;2023-11-21T16:03:04;36.60;;;12.05;;
19848;SDS011;10085;51.120;6.956;2023-11-21T16:13:09;34.50;;;10.18;;
19848;SDS011;10085;51.120;6.956;2023-11-21T16:23:12;30.20;;;11.20;;
19848;SDS011;10085;51.120;6.956;2023-11-21T16:33:19;26.85;;;9.25;;
19848;SDS011;10085;51.120;6.956;2023-11-21T16:43:22;34.67;;;10.65;;
19848;SDS011;10085;51.120;6.956;2023-11-21T16:53:26;28.23;;;10.02;;
19848;SDS011;10085;51.120;6.956;2023-11-21T17:03:28;17.02;;;6.72;;
19848;SDS011;10085;51.120;6.956;2023-11-21T17:13:34;18.95;;;7.60;;
19848;SDS011;10085;51.120;6.956;2023-11-21T17:23:36;18.90;;;8.13;;
19848;SDS011;10085;51.120;6.956;2023-11-21T17:33:40;20.50;;;7.88;;
19848;SDS011;10085;51.120;6.956;2023-11-21T17:43:44;16.95;;;7.07;;
19848;SDS011;10085;51.120;6.956;2023-11-21T17:53:48;14.73;;;6.90;;
19848;SDS011;10085;51.120;6.956;2023-11-21T18:03:51;15.50;;;6.05;;
19848;SDS011;10085;51.120;6.956;2023-11-21T18:13:55;15.07;;;6.40;;
19848;SDS011;10085;51.120;6.956;2023-11-21T18:23:59;14.73;;;6.65;;
19848;SDS011;10085;51.120;6.956;2023-11-21T18:34:05;15.70;;;7.60;;
19848;SDS011;10085;51.120;6.956;2023-11-21T18:44:08;13.20;;;5.95;;
19848;SDS011;10085;51.120;6.956;2023-11-21T18:54:13;17.33;;;8.23;;
19848;SDS011;10085;51.120;6.956;2023-11-21T19:04:16;12.73;;;5.65;;
19848;SDS011;10085;51.120;6.956;2023-11-21T19:14:23;18.83;;;8.30;;
19848;SDS011;10085;51.120;6.956;2023-11-21T19:24:26;18.15;;;8.80;;
19848;SDS011;10085;51.120;6.956;2023-11-21T19:34:31;16.90;;;7.75;;
19848;SDS011;10085;51.120;6.956;2023-11-21T19:44:34;18.10;;;7.60;;
19848;SDS011;10085;51.120;6.956;2023-11-21T19:54:39;21.27;;;9.98;;
19848;SDS011;10085;51.120;6.956;2023-11-21T20:04:42;15.77;;;7.32;;
19848;SDS011;10085;51.120;6.956;2023-11-21T20:14:47;21.23;;;9.57;;
19848;SDS011;10085;51.120;6.956;2023-11-21T20:24:50;18.33;;;8.15;;
19848;SDS011;10085;51.120;6.956;2023-11-21T20:34:55;17.98;;;8.50;;
19848;SDS011;10085;51.120;6.956;2023-11-21T20:44:58;17.63;;;8.10;;
19848;SDS011;10085;51.120;6.956;2023-11-21T20:55:02;21.25;;;9.73;;
19848;SDS011;10085;51.120;6.956;2023-11-21T21:05:06;23.23;;;10.82;;
19848;SDS011;10085;51.120;6.956;2023-11-21T21:15:12;19.08;;;9.48;;
19848;SDS011;10085;51.120;6.956;2023-11-21T21:25:15;19.38;;;9.63;;
19848;SDS011;10085;51.120;6.956;2023-11-21T21:35:19;23.23;;;10.07;;
19848;SDS011;10085;51.120;6.956;2023-11-21T21:45:22;20.30;;;10.00;;
19848;SDS011;10085;51.120;6.956;2023-11-21T21:55:28;20.33;;;9.98;;
19848;SDS011;10085;51.120;6.956;2023-11-21T22:05:32;20.30;;;10.00;;
19848;SDS011;10085;51.120;6.956;2023-11-21T22:15:36;19.70;;;9.27;;
19848;SDS011;10085;51.120;6.956;2023-11-21T22:25:39;21.63;;;9.27;;
19848;SDS011;10085;51.120;6.956;2023-11-21T22:35:43;20.75;;;9.50;;
19848;SDS011;10085;51.120;6.956;2023-11-21T22:45:46;15.90;;;7.20;;
19848;SDS011;10085;51.120;6.956;2023-11-21T22:55:51;17.77;;;8.88;;
19848;SDS011;10085;51.120;6.956;2023-11-21T23:05:54;16.30;;;8.80;;
19848;SDS011;10085;51.120;6.956;2023-11-21T23:15:59;22.77;;;8.35;;
19848;SDS011;10085;51.120;6.956;2023-11-21T23:26:02;19.17;;;8.65;;
19848;SDS011;10085;51.120;6.956;2023-11-21T23:36:07;17.45;;;7.78;;
19848;SDS011;10085;51.120;6.956;2023-11-21T23:46:10;19.33;;;9.00;;
19848;SDS011;10085;51.120;6.956;2023-11-21T23:56:14;16.42;;;7.00;;
